createdAt,value
2023-03-29T10:41:13.775Z,100539.47
2023-03-29T10:42:24.826Z,100538.94
2023-03-29T10:43:40.187Z,100537.59
2023-03-29T10:44:51.457Z,100540.94
2023-03-29T10:45:57.918Z,100542.59
2023-03-29T10:47:23.434Z,100545.91
2023-03-29T10:48:34.411Z,100554.75
2023-03-29T10:49:47.054Z,100558.88
2023-03-29T10:50:57.238Z,100555.06
2023-03-29T10:52:14.925Z,100566.91
2023-03-29T10:53:36.332Z,100559.19
2023-03-29T10:54:43.535Z,100564.47
2023-03-29T10:55:58.743Z,100563.38
2023-03-29T10:57:10.891Z,100564.16
2023-03-29T10:58:27.690Z,100577.94
2023-03-29T10:59:37.920Z,100576.59
2023-03-29T11:00:51.493Z,100588.97
2023-03-29T11:02:20.427Z,100587.06
2023-03-29T11:04:03.305Z,100588.72
2023-03-29T11:05:24.181Z,100587.63
2023-03-29T11:06:40.162Z,100583.53
2023-03-29T11:07:57.839Z,100593.72
2023-03-29T11:09:24.179Z,100597.00
2023-03-29T11:10:46.161Z,100595.09
2023-03-29T11:12:15.603Z,100604.72
2023-03-29T11:13:30.823Z,100601.97
2023-03-29T11:14:43.221Z,100614.38
2023-03-29T11:15:59.752Z,100624.50
2023-03-29T11:17:18.630Z,100623.94
2023-03-29T11:18:40.967Z,100631.09
2023-03-29T11:19:59.227Z,100631.63
2023-03-29T11:21:11.702Z,100640.47
2023-03-29T11:22:24.466Z,100636.31
2023-03-29T11:23:41.930Z,100631.38
2023-03-29T11:25:06.384Z,100633.56
2023-03-29T11:26:18.475Z,100634.13
2023-03-29T11:27:32.252Z,100636.03
2023-03-29T11:28:45.615Z,100643.72
2023-03-29T11:30:19.636Z,100652.53
2023-03-29T11:31:38.822Z,100652.25
2023-03-29T11:32:55.381Z,100654.97
2023-03-29T11:34:24.858Z,100662.41
2023-03-29T11:35:45.255Z,100663.50
2023-03-29T11:37:03.567Z,100662.13
2023-03-29T11:38:28.652Z,100661.56
2023-03-29T11:39:45.981Z,100667.34
2023-03-29T11:41:02.205Z,100669.53
2023-03-29T11:42:15.788Z,100668.16
2023-03-29T11:43:28.828Z,100667.31
2023-03-29T11:44:37.516Z,100667.31
2023-03-29T11:45:46.995Z,100668.44
2023-03-29T11:47:00.174Z,100669.53
2023-03-29T11:48:09.177Z,100666.78
2023-03-29T11:49:23.587Z,100669.53
2023-03-29T11:50:34.764Z,100669.53
2023-03-29T11:51:46.788Z,100668.94
2023-03-29T11:52:56.097Z,100676.91
2023-03-29T11:54:09.632Z,100678.81
2023-03-29T11:55:25.364Z,100686.25
2023-03-29T11:56:37.278Z,100686.50
2023-03-29T11:57:47.071Z,100701.03
2023-03-29T11:59:03.095Z,100704.34
2023-03-29T12:00:21.264Z,100713.41
2023-03-29T12:01:33.645Z,100712.88
2023-03-29T12:02:43.449Z,100725.19
2023-03-29T12:03:55.453Z,100726.28
2023-03-29T12:05:05.638Z,100734.81
2023-03-29T12:06:19.376Z,100738.91
2023-03-29T12:07:31.895Z,100746.06
2023-03-29T12:08:40.944Z,100754.00
2023-03-29T12:09:51.938Z,100753.97
2023-03-29T12:11:07.163Z,100762.47
2023-03-29T12:12:24.903Z,100766.31
2023-03-29T12:13:36.761Z,100771.22
2023-03-29T12:14:56.802Z,100770.38
2023-03-29T12:16:12.232Z,100770.91
2023-03-29T12:17:23.931Z,100772.53
2023-03-29T12:18:33.285Z,100774.72
2023-03-29T12:19:43.794Z,100772.50
2023-03-29T12:20:57.141Z,100785.41
2023-03-29T12:22:04.066Z,100785.66
2023-03-29T12:23:18.786Z,100776.34
2023-03-29T12:24:27.523Z,100779.06
2023-03-29T12:25:39.415Z,100786.75
2023-03-29T12:27:22.307Z,100780.66
2023-03-29T12:28:49.675Z,100783.69
2023-03-29T12:30:28.791Z,100778.47
2023-03-29T12:31:41.518Z,100786.69
2023-03-29T12:32:58.419Z,100780.09
2023-03-29T12:34:31.263Z,100792.19
2023-03-29T12:35:46.675Z,100783.38
2023-03-29T12:37:10.826Z,100788.03
2023-03-29T12:38:28.679Z,100792.69
2023-03-29T12:39:39.216Z,100800.94
2023-03-29T12:40:47.882Z,100802.84
2023-03-29T12:41:56.696Z,100805.88
2023-03-29T12:43:09.564Z,100814.38
2023-03-29T12:44:19.370Z,100813.78
2023-03-29T12:45:49.893Z,100815.38
2023-03-29T12:47:00.462Z,100813.19
2023-03-29T12:48:08.035Z,100813.47
2023-03-29T12:49:21.031Z,100816.72
2023-03-29T12:50:54.866Z,100822.47
2023-03-29T12:52:04.378Z,100823.03
2023-03-29T12:53:20.465Z,100824.38
2023-03-29T12:54:35.524Z,100826.81
2023-03-29T12:55:56.357Z,100840.25
2023-03-29T12:57:09.056Z,100837.78
2023-03-29T12:58:35.139Z,100839.38
2023-03-29T12:59:48.354Z,100842.13
2023-03-29T13:01:08.511Z,100835.53
2023-03-29T13:02:47.390Z,100841.78
2023-03-29T13:03:54.822Z,100831.63
2023-03-29T13:05:03.732Z,100837.06
2023-03-29T13:06:15.577Z,100828.84
2023-03-29T13:07:53.489Z,100827.47
2023-03-29T16:38:07.672Z,100898.72
2023-03-29T16:39:16.310Z,100897.06
2023-03-29T16:40:22.637Z,100905.03
2023-03-29T16:41:29.335Z,100900.97
2023-03-29T16:42:36.118Z,100899.63
2023-03-29T16:43:42.860Z,100899.38
2023-03-29T16:44:49.583Z,100895.56
2023-03-29T16:45:56.575Z,100896.38
2023-03-29T16:47:03.471Z,100890.41
2023-03-29T16:48:08.942Z,100894.56
2023-03-29T16:49:19.642Z,100886.06
2023-03-29T16:50:26.510Z,100889.41
2023-03-29T16:51:33.340Z,100882.59
2023-03-29T16:52:40.571Z,100881.50
2023-03-29T16:53:45.922Z,100885.88
2023-03-29T16:54:54.656Z,100885.06
2023-03-29T16:56:01.685Z,100883.16
2023-03-29T16:57:09.267Z,100876.34
2023-03-29T16:58:16.803Z,100872.53
2023-03-29T16:59:23.558Z,100876.91
2023-03-29T17:00:30.817Z,100868.69
2023-03-29T17:01:37.757Z,100873.03
2023-03-29T17:02:44.580Z,100864.25
2023-03-29T17:03:51.294Z,100866.06
2023-03-29T17:04:56.810Z,100857.56
2023-03-29T17:06:04.019Z,100857.78
2023-03-29T17:07:10.962Z,100872.00
2023-03-29T17:08:16.428Z,100857.72
2023-03-29T17:09:23.276Z,100856.66
2023-03-29T17:10:31.728Z,100854.59
2023-03-29T17:11:38.669Z,100855.06
2023-03-29T17:12:45.445Z,100855.06
2023-03-29T17:13:50.803Z,100851.25
2023-03-29T17:14:57.572Z,100853.50
2023-03-29T17:16:03.367Z,100853.25
2023-03-29T17:17:10.818Z,100855.16
2023-03-29T17:18:17.645Z,100859.53
2023-03-29T17:19:24.410Z,100856.25
2023-03-29T17:20:29.900Z,100852.69
2023-03-29T17:21:36.821Z,100854.25
2023-03-29T17:22:43.977Z,100846.56
2023-03-29T17:23:49.331Z,100841.91
2023-03-29T17:24:56.153Z,100837.50
2023-03-29T17:26:05.047Z,100838.34
2023-03-29T17:27:12.043Z,100833.69
2023-03-29T17:28:17.460Z,100836.44
2023-03-29T17:29:24.182Z,100833.69
2023-03-29T17:30:29.644Z,100838.00
2023-03-29T17:31:37.793Z,100828.13
2023-03-29T17:32:43.236Z,100832.78
2023-03-29T17:33:52.233Z,100838.25
2023-03-29T17:35:00.766Z,100833.63
2023-03-29T17:36:07.573Z,100842.41
2023-03-29T17:37:14.695Z,100835.59
2023-03-29T17:38:21.800Z,100834.50
2023-03-29T17:39:29.121Z,100839.72
2023-03-29T17:40:34.440Z,100840.56
2023-03-29T17:41:43.550Z,100843.91
2023-03-29T17:42:49.693Z,100838.66
2023-03-29T17:43:56.385Z,100841.38
2023-03-29T17:45:01.783Z,100837.56
2023-03-29T17:46:08.856Z,100845.53
2023-03-29T17:47:15.554Z,100840.06
2023-03-29T17:48:22.768Z,100839.81
2023-03-29T17:49:31.505Z,100840.38
2023-03-29T17:50:38.336Z,100835.97
2023-03-29T17:51:45.165Z,100837.91
2023-03-29T17:52:50.710Z,100833.25
2023-03-29T17:53:58.643Z,100834.34
2023-03-29T17:55:04.115Z,100829.69
2023-03-29T17:56:11.821Z,100829.34
2023-03-29T17:57:20.356Z,100824.66
2023-03-29T17:58:27.108Z,100824.88
2023-03-29T17:59:33.808Z,100828.97
2023-03-29T18:00:39.528Z,100816.63
2023-03-29T18:01:46.459Z,100821.25
2023-03-29T18:02:53.212Z,100819.59
2023-03-29T18:04:00.058Z,100826.97
2023-03-29T18:05:06.065Z,100816.03
2023-03-29T18:06:13.072Z,100811.63
2023-03-29T18:07:18.949Z,100813.28
2023-03-29T18:08:25.606Z,100805.91
2023-03-29T18:09:31.155Z,100813.28
2023-03-29T18:10:38.326Z,100808.41
2023-03-29T18:11:43.672Z,100810.06
2023-03-29T18:12:52.137Z,100809.78
2023-03-29T18:14:01.671Z,100799.66
2023-03-29T18:15:08.969Z,100804.06
2023-03-29T18:16:14.396Z,100802.97
2023-03-29T18:17:21.116Z,100801.66
2023-03-29T18:18:28.241Z,100801.41
2023-03-29T18:19:34.997Z,100805.78
2023-03-29T18:20:43.625Z,100810.19
2023-03-29T18:21:50.329Z,100798.16
2023-03-29T18:22:55.721Z,100797.91
2023-03-29T18:24:02.551Z,100797.66
2023-03-29T18:25:08.953Z,100793.81
2023-03-29T18:26:16.208Z,100794.66
2023-03-29T18:27:22.054Z,100786.19
2023-03-29T18:28:30.471Z,100790.59
2023-03-29T18:29:35.980Z,100789.50
2023-03-29T18:30:42.722Z,100785.13
2023-03-29T18:31:49.773Z,100785.38
2023-03-29T18:32:56.617Z,100786.69
2023-03-29T18:34:03.687Z,100789.38
2023-03-29T18:35:11.281Z,100785.97
2023-03-29T18:36:18.284Z,100791.88
2023-03-29T18:37:25.193Z,100787.63
2023-03-29T18:38:31.151Z,100782.09
2023-03-29T18:39:38.764Z,100782.03
2023-03-29T18:40:45.450Z,100782.53
2023-03-29T18:41:52.095Z,100778.41
2023-03-29T18:42:57.401Z,100766.84
2023-03-29T18:44:05.785Z,100769.75
2023-03-29T18:45:13.348Z,100774.97
2023-03-29T18:46:18.769Z,100764.56
2023-03-29T18:47:25.420Z,100767.28
2023-03-29T18:48:31.022Z,100773.84
2023-03-29T18:49:38.097Z,100760.72
2023-03-29T18:50:46.842Z,100766.19
2023-03-29T18:51:53.506Z,100759.91
2023-03-29T18:52:58.771Z,100762.38
2023-03-29T18:54:05.773Z,100762.38
2023-03-29T18:55:11.802Z,100759.06
2023-03-29T18:56:18.482Z,100754.91
2023-03-29T18:57:25.175Z,100755.19
2023-03-29T18:58:30.666Z,100759.25
2023-03-29T18:59:39.150Z,100760.56
2023-03-29T19:00:45.353Z,100754.53
2023-03-29T19:01:52.043Z,100758.81
2023-03-29T19:02:58.749Z,100762.91
2023-03-29T19:04:05.439Z,100762.56
2023-03-29T19:05:12.793Z,100755.44
2023-03-29T19:06:19.496Z,100760.34
2023-03-29T19:07:26.110Z,100750.69
2023-03-29T19:08:34.398Z,100754.16
2023-03-29T19:09:39.710Z,100753.31
2023-03-29T19:10:46.486Z,100748.47
2023-03-29T19:11:53.160Z,100747.59
2023-03-29T19:12:59.806Z,100745.47
2023-03-29T19:14:06.625Z,100745.22
2023-03-29T19:15:16.070Z,100749.59
2023-03-29T19:16:21.955Z,100744.97
2023-03-29T19:17:29.171Z,100742.03
2023-03-29T19:18:35.990Z,100738.22
2023-03-29T19:19:47.379Z,100740.69
2023-03-29T19:20:55.592Z,100742.34
2023-03-29T19:22:02.267Z,100735.22
2023-03-29T19:23:07.666Z,100729.19
2023-03-29T19:24:14.412Z,100734.66
2023-03-29T19:25:21.224Z,100737.13
2023-03-29T19:26:26.824Z,100733.31
2023-03-29T19:27:33.612Z,100738.78
2023-03-29T19:28:40.363Z,100742.34
2023-03-29T19:29:45.636Z,100736.28
2023-03-29T19:30:54.325Z,100744.25
2023-03-29T19:32:01.055Z,100740.94
2023-03-29T19:33:07.929Z,100740.13
2023-03-29T19:34:14.656Z,100743.66
2023-03-29T19:35:20.154Z,100754.88
2023-03-29T19:36:26.805Z,100753.78
2023-03-29T19:37:33.477Z,100754.00
2023-03-29T19:38:40.200Z,100746.88
2023-03-29T19:39:46.206Z,100755.06
2023-03-29T19:40:54.131Z,100749.59
2023-03-29T19:41:59.689Z,100752.31
2023-03-29T19:43:06.328Z,100750.44
2023-03-29T19:44:13.135Z,100749.41
2023-03-29T19:45:18.544Z,100751.88
2023-03-29T19:46:26.944Z,100749.16
2023-03-29T19:47:33.909Z,100747.22
2023-03-29T19:48:39.407Z,100754.34
2023-03-29T19:49:47.973Z,100752.44
2023-03-29T19:50:53.470Z,100749.97
2023-03-29T19:52:00.107Z,100739.84
2023-03-29T19:53:05.502Z,100745.31
2023-03-29T19:54:14.235Z,100742.84
2023-03-29T19:55:21.115Z,100749.16
2023-03-29T19:56:29.392Z,100751.06
2023-03-29T19:57:36.097Z,100749.28
2023-03-29T19:58:41.419Z,100744.81
2023-03-29T19:59:48.092Z,100739.81
2023-03-29T20:00:59.523Z,100739.81
2023-03-29T20:02:06.678Z,100738.47
2023-03-29T20:03:15.447Z,100743.94
2023-03-29T20:04:22.599Z,100745.88
2023-03-29T20:05:28.086Z,100739.34
2023-03-29T20:06:34.779Z,100733.88
2023-03-29T20:07:40.132Z,100738.75
2023-03-29T20:08:46.832Z,100729.38
2023-03-29T20:09:52.157Z,100741.38
2023-03-29T20:11:02.239Z,100735.59
2023-03-29T20:12:08.006Z,100738.00
2023-03-29T20:13:19.009Z,100736.59
2023-03-29T20:14:31.427Z,100736.25
2023-03-29T20:15:36.673Z,100736.50
2023-03-29T20:16:44.194Z,100740.31
2023-03-29T20:17:52.943Z,100736.50
2023-03-29T20:19:03.375Z,100726.41
2023-03-29T20:20:12.002Z,100728.06
2023-03-29T20:21:18.204Z,100734.59
2023-03-29T20:22:27.445Z,100728.53
2023-03-29T20:23:34.035Z,100731.53
2023-03-29T20:24:40.769Z,100731.19
2023-03-29T20:25:47.733Z,100736.06
2023-03-29T20:26:53.086Z,100734.97
2023-03-29T20:28:01.160Z,100735.81
2023-03-29T20:29:06.644Z,100732.25
2023-03-29T20:30:14.168Z,100741.28
2023-03-29T20:31:19.605Z,100735.59
2023-03-29T20:32:26.304Z,100733.69
2023-03-29T20:33:33.401Z,100739.16
2023-03-29T20:34:40.211Z,100733.44
2023-03-29T20:35:48.675Z,100739.41
2023-03-29T20:36:56.638Z,100736.66
2023-03-29T20:38:03.436Z,100733.69
2023-03-29T20:39:09.781Z,100732.84
2023-03-29T20:40:17.166Z,100725.72
2023-03-29T20:41:22.490Z,100729.53
2023-03-29T20:42:31.291Z,100723.72
2023-03-29T20:43:38.808Z,100725.28
2023-03-29T20:44:51.911Z,100724.94
2023-03-29T20:45:57.306Z,100731.75
2023-03-29T20:47:08.059Z,100734.47
2023-03-29T20:48:13.489Z,100731.75
2023-03-29T20:49:27.599Z,100724.38
2023-03-29T20:50:34.332Z,100724.13
2023-03-29T20:51:39.866Z,100728.28
2023-03-29T20:52:46.490Z,100725.53
2023-03-29T20:53:53.343Z,100725.53
2023-03-29T20:55:00.709Z,100723.38
2023-03-29T20:56:08.205Z,100723.38
2023-03-29T20:57:16.474Z,100725.88
2023-03-29T20:58:21.841Z,100726.72
2023-03-29T20:59:29.308Z,100729.44
2023-03-29T21:00:39.100Z,100720.19
2023-03-29T21:01:44.415Z,100719.09
2023-03-29T21:02:51.225Z,100722.66
2023-03-29T21:03:58.267Z,100715.84
2023-03-29T21:05:05.730Z,100718.38
2023-03-29T21:06:15.516Z,100725.47
2023-03-29T21:07:23.090Z,100722.75
2023-03-29T21:08:30.203Z,100718.94
2023-03-29T21:09:38.362Z,100714.28
2023-03-29T21:10:45.028Z,100717.84
2023-03-29T21:11:50.404Z,100714.53
2023-03-29T21:13:01.503Z,100718.38
2023-03-29T21:14:06.957Z,100729.53
2023-03-29T21:15:14.938Z,100724.88
2023-03-29T21:16:22.020Z,100726.78
2023-03-29T21:17:28.887Z,100724.88
2023-03-29T21:18:34.272Z,100721.81
2023-03-29T21:19:42.382Z,100724.00
2023-03-29T21:20:51.179Z,100727.19
2023-03-29T21:21:57.812Z,100731.00
2023-03-29T21:23:03.118Z,100730.75
2023-03-29T21:24:10.334Z,100724.00
2023-03-29T21:25:17.592Z,100728.84
2023-03-29T21:26:24.281Z,100729.69
2023-03-29T21:27:30.909Z,100717.34
2023-03-29T21:28:39.056Z,100722.81
2023-03-29T21:29:45.719Z,100719.25
2023-03-29T21:30:51.162Z,100724.94
2023-03-29T21:31:57.892Z,100721.38
2023-03-29T21:33:03.232Z,100722.22
2023-03-29T21:34:09.985Z,100719.47
2023-03-29T21:35:15.518Z,100718.44
2023-03-29T21:36:23.925Z,100727.44
2023-03-29T21:37:29.208Z,100728.28
2023-03-29T21:38:36.568Z,100729.38
2023-03-29T21:39:43.807Z,100732.31
2023-03-29T21:40:49.182Z,100730.66
2023-03-29T21:41:55.846Z,100725.44
2023-03-29T21:43:01.111Z,100727.09
2023-03-29T21:44:07.780Z,100724.38
2023-03-29T21:45:14.007Z,100727.69
2023-03-29T21:46:20.746Z,100727.69
2023-03-29T21:47:26.127Z,100726.19
2023-03-29T21:48:32.783Z,100723.72
2023-03-29T21:49:38.058Z,100727.25
2023-03-29T21:50:44.773Z,100731.66
2023-03-29T21:51:51.886Z,100727.84
2023-03-29T21:52:58.656Z,100733.56
2023-03-29T21:54:03.984Z,100736.28
2023-03-29T21:55:11.469Z,100732.72
2023-03-29T21:56:18.107Z,100734.38
2023-03-29T21:57:23.419Z,100737.63
2023-03-29T21:58:30.184Z,100736.75
2023-03-29T21:59:36.941Z,100739.50
2023-03-29T22:00:42.221Z,100738.06
2023-03-29T22:01:48.925Z,100736.41
2023-03-29T22:02:54.398Z,100740.53
2023-03-29T22:04:01.163Z,100738.66
2023-03-29T22:05:08.454Z,100739.50
2023-03-29T22:06:16.408Z,100735.47
2023-03-29T22:07:25.245Z,100743.66
2023-03-29T22:08:30.575Z,100740.94
2023-03-29T22:09:37.957Z,100747.22
2023-03-29T22:10:43.475Z,100744.47
2023-03-29T22:11:50.153Z,100747.22
2023-03-29T22:12:55.472Z,100750.53
2023-03-29T22:14:02.246Z,100742.31
2023-03-29T22:15:08.493Z,100745.88
2023-03-29T22:16:21.320Z,100739.84
2023-03-29T22:17:28.110Z,100750.41
2023-03-29T22:18:44.132Z,100746.00
2023-03-29T22:19:49.517Z,100746.00
2023-03-29T22:20:56.558Z,100744.13
2023-03-29T22:22:03.446Z,100742.22
2023-03-29T22:23:10.429Z,100745.44
2023-03-29T22:24:17.103Z,100748.16
2023-03-29T22:25:24.258Z,100746.75
2023-03-29T22:26:32.121Z,100748.31
2023-03-29T22:27:37.599Z,100753.44
2023-03-29T22:28:44.329Z,100757.22
2023-03-29T22:29:51.044Z,100753.69
2023-03-29T22:30:56.355Z,100753.69
2023-03-29T22:32:03.147Z,100751.31
2023-03-29T22:33:08.691Z,100753.78
2023-03-29T22:34:15.429Z,100752.69
2023-03-29T22:35:20.845Z,100759.81
2023-03-29T22:36:29.007Z,100759.56
2023-03-29T22:37:34.328Z,100757.69
2023-03-29T22:38:42.998Z,100766.72
2023-03-29T22:39:48.914Z,100757.91
2023-03-29T22:40:55.669Z,100768.84
2023-03-29T22:42:02.430Z,100766.94
2023-03-29T22:43:07.971Z,100768.75
2023-03-29T22:44:14.837Z,100772.22
2023-03-29T22:45:20.286Z,100774.59
2023-03-29T22:46:27.859Z,100777.22
2023-03-29T22:47:33.526Z,100776.88
2023-03-29T22:48:40.681Z,100779.84
2023-03-29T22:49:46.093Z,100779.28
2023-03-29T22:50:52.794Z,100778.19
2023-03-29T22:51:58.238Z,100776.53
2023-03-29T22:53:04.904Z,100779.28
2023-03-29T22:54:12.082Z,100781.38
2023-03-29T22:55:19.100Z,100786.63
2023-03-29T22:56:26.331Z,100784.97
2023-03-29T22:57:31.628Z,100788.53
2023-03-29T22:58:38.417Z,100787.47
2023-03-29T22:59:43.872Z,100784.47
2023-03-29T23:00:50.806Z,100794.31
2023-03-29T23:01:56.270Z,100793.03
2023-03-29T23:03:03.147Z,100790.06
2023-03-29T23:04:08.808Z,100794.44
2023-03-29T23:05:15.668Z,100795.00
2023-03-29T23:06:21.025Z,100797.75
2023-03-29T23:07:27.811Z,100797.03
2023-03-29T23:08:34.186Z,100805.00
2023-03-29T23:09:42.655Z,100798.47
2023-03-29T23:10:49.211Z,100802.59
2023-03-29T23:11:55.956Z,100804.25
2023-03-29T23:13:10.379Z,100803.41
2023-03-29T23:14:17.194Z,100804.25
2023-03-29T23:15:24.276Z,100812.94
2023-03-29T23:16:31.252Z,100806.53
2023-03-29T23:17:36.844Z,100805.59
2023-03-29T23:18:43.514Z,100801.69
2023-03-29T23:19:49.424Z,100806.81
2023-03-29T23:20:58.073Z,100808.94
2023-03-29T23:22:03.581Z,100811.56
2023-03-29T23:23:10.794Z,100820.81
2023-03-29T23:24:19.230Z,100816.19
2023-03-29T23:25:28.081Z,100816.69
2023-03-29T23:26:33.428Z,100815.38
2023-03-29T23:27:40.167Z,100809.09
2023-03-29T23:28:46.291Z,100816.44
2023-03-29T23:29:53.016Z,100810.75
2023-03-29T23:31:01.825Z,100820.38
2023-03-29T23:32:07.648Z,100814.06
2023-03-29T23:33:16.058Z,100822.03
2023-03-29T23:34:21.806Z,100824.50
2023-03-29T23:35:28.638Z,100826.75
2023-03-29T23:36:35.374Z,100829.25
2023-03-29T23:37:41.076Z,100832.81
2023-03-29T23:38:49.440Z,100836.63
2023-03-29T23:39:55.259Z,100835.53
2023-03-29T23:41:05.036Z,100834.47
2023-03-29T23:42:10.934Z,100835.06
2023-03-29T23:43:18.558Z,100834.00
2023-03-29T23:44:24.110Z,100834.56
2023-03-29T23:45:31.200Z,100847.16
2023-03-29T23:46:36.633Z,100841.38
2023-03-29T23:47:43.979Z,100848.00
2023-03-29T23:48:51.926Z,100849.91
2023-03-29T23:49:57.350Z,100850.72
2023-03-29T23:51:04.198Z,100844.81
2023-03-29T23:52:09.747Z,100850.03
2023-03-29T23:53:17.345Z,100848.94
2023-03-29T23:54:24.067Z,100852.50
2023-03-29T23:55:29.497Z,100845.13
2023-03-29T23:56:38.137Z,100850.38
2023-03-29T23:57:43.609Z,100854.19
2023-03-29T23:58:50.377Z,100856.66
2023-03-29T23:59:57.246Z,100856.41
